sensor_id;sensor_type;location;lat;lon;timestamp;P1;durP1;ratioP1;P2;durP2;ratioP2
17347;SDS011;8791;50.876;4.342;2023-04-08T00:01:55;20.00;;;7.17;;
17347;SDS011;8791;50.876;4.342;2023-04-08T00:04:22;22.17;;;6.87;;
17347;SDS011;8791;50.876;4.342;2023-04-08T00:06:49;19.80;;;7.57;;
17347;SDS011;8791;50.876;4.342;2023-04-08T00:09:16;22.07;;;8.00;;
17347;SDS011;8791;50.876;4.342;2023-04-08T00:11:42;26.53;;;7.97;;
17347;SDS011;8791;50.876;4.342;2023-04-08T00:14:09;27.93;;;7.70;;
17347;SDS011;8791;50.876;4.342;2023-04-08T00:16:36;29.30;;;7.90;;
17347;SDS011;8791;50.876;4.342;2023-04-08T00:19:04;26.07;;;8.40;;
17347;SDS011;8791;50.876;4.342;2023-04-08T00:21:31;37.97;;;7.43;;
17347;SDS011;8791;50.876;4.342;2023-04-08T00:23:58;27.13;;;7.53;;
17347;SDS011;8791;50.876;4.342;2023-04-08T00:26:25;25.77;;;7.87;;
17347;SDS011;8791;50.876;4.342;2023-04-08T00:28:51;22.80;;;7.73;;
17347;SDS011;8791;50.876;4.342;2023-04-08T00:31:18;20.77;;;8.07;;
17347;SDS011;8791;50.876;4.342;2023-04-08T00:33:45;24.43;;;8.07;;
17347;SDS011;8791;50.876;4.342;2023-04-08T00:36:14;26.30;;;7.93;;
17347;SDS011;8791;50.876;4.342;2023-04-08T00:38:40;17.77;;;7.50;;
17347;SDS011;8791;50.876;4.342;2023-04-08T00:41:07;19.60;;;7.73;;
17347;SDS011;8791;50.876;4.342;2023-04-08T00:43:34;18.13;;;6.83;;
17347;SDS011;8791;50.876;4.342;2023-04-08T00:46:01;24.10;;;7.80;;
17347;SDS011;8791;50.876;4.342;2023-04-08T00:48:29;24.53;;;7.83;;
17347;SDS011;8791;50.876;4.342;2023-04-08T00:50:56;20.00;;;7.77;;
17347;SDS011;8791;50.876;4.342;2023-04-08T00:53:24;21.80;;;7.90;;
17347;SDS011;8791;50.876;4.342;2023-04-08T00:55:51;25.13;;;7.30;;
17347;SDS011;8791;50.876;4.342;2023-04-08T00:58:18;30.43;;;8.13;;
17347;SDS011;8791;50.876;4.342;2023-04-08T01:00:45;24.73;;;7.43;;
17347;SDS011;8791;50.876;4.342;2023-04-08T01:03:19;25.90;;;7.80;;
17347;SDS011;8791;50.876;4.342;2023-04-08T01:05:54;29.70;;;7.57;;
17347;SDS011;8791;50.876;4.342;2023-04-08T01:08:27;17.70;;;7.07;;
17347;SDS011;8791;50.876;4.342;2023-04-08T01:10:57;22.17;;;8.40;;
17347;SDS011;8791;50.876;4.342;2023-04-08T01:13:27;16.93;;;8.13;;
17347;SDS011;8791;50.876;4.342;2023-04-08T01:15:57;24.63;;;8.33;;
17347;SDS011;8791;50.876;4.342;2023-04-08T01:18:25;29.70;;;8.40;;
17347;SDS011;8791;50.876;4.342;2023-04-08T01:20:52;21.33;;;9.10;;
17347;SDS011;8791;50.876;4.342;2023-04-08T01:23:22;26.20;;;9.80;;
17347;SDS011;8791;50.876;4.342;2023-04-08T01:26:10;26.00;;;9.20;;
17347;SDS011;8791;50.876;4.342;2023-04-08T01:28:45;29.90;;;8.70;;
17347;SDS011;8791;50.876;4.342;2023-04-08T01:31:15;30.37;;;8.87;;
17347;SDS011;8791;50.876;4.342;2023-04-08T01:33:43;31.20;;;9.17;;
17347;SDS011;8791;50.876;4.342;2023-04-08T01:36:11;17.00;;;9.13;;
17347;SDS011;8791;50.876;4.342;2023-04-08T01:38:39;28.37;;;8.90;;
17347;SDS011;8791;50.876;4.342;2023-04-08T01:41:06;18.27;;;8.17;;
17347;SDS011;8791;50.876;4.342;2023-04-08T01:43:37;29.67;;;9.07;;
17347;SDS011;8791;50.876;4.342;2023-04-08T01:46:05;29.53;;;8.43;;
17347;SDS011;8791;50.876;4.342;2023-04-08T01:48:33;24.30;;;9.10;;
17347;SDS011;8791;50.876;4.342;2023-04-08T01:51:01;36.67;;;9.83;;
17347;SDS011;8791;50.876;4.342;2023-04-08T01:53:30;27.17;;;9.40;;
17347;SDS011;8791;50.876;4.342;2023-04-08T01:56:00;22.20;;;9.30;;
17347;SDS011;8791;50.876;4.342;2023-04-08T01:58:31;25.27;;;9.77;;
17347;SDS011;8791;50.876;4.342;2023-04-08T02:01:03;28.60;;;9.93;;
17347;SDS011;8791;50.876;4.342;2023-04-08T02:03:35;15.80;;;9.60;;
17347;SDS011;8791;50.876;4.342;2023-04-08T02:06:03;23.73;;;10.43;;
17347;SDS011;8791;50.876;4.342;2023-04-08T02:08:32;33.37;;;11.53;;
17347;SDS011;8791;50.876;4.342;2023-04-08T02:10:59;26.43;;;10.87;;
17347;SDS011;8791;50.876;4.342;2023-04-08T02:13:26;25.07;;;10.03;;
17347;SDS011;8791;50.876;4.342;2023-04-08T02:15:56;16.10;;;9.57;;
17347;SDS011;8791;50.876;4.342;2023-04-08T02:18:28;28.20;;;10.03;;
17347;SDS011;8791;50.876;4.342;2023-04-08T02:20:58;28.03;;;9.87;;
17347;SDS011;8791;50.876;4.342;2023-04-08T02:23:31;25.17;;;9.57;;
17347;SDS011;8791;50.876;4.342;2023-04-08T02:26:03;23.30;;;10.63;;
17347;SDS011;8791;50.876;4.342;2023-04-08T02:28:32;25.50;;;10.87;;
17347;SDS011;8791;50.876;4.342;2023-04-08T02:31:01;26.20;;;11.43;;
17347;SDS011;8791;50.876;4.342;2023-04-08T02:33:31;25.93;;;10.90;;
17347;SDS011;8791;50.876;4.342;2023-04-08T02:35:59;28.80;;;11.30;;
17347;SDS011;8791;50.876;4.342;2023-04-08T02:38:28;31.07;;;11.63;;
17347;SDS011;8791;50.876;4.342;2023-04-08T02:40:54;24.17;;;11.57;;
17347;SDS011;8791;50.876;4.342;2023-04-08T02:43:22;35.23;;;12.20;;
17347;SDS011;8791;50.876;4.342;2023-04-08T02:45:53;24.50;;;11.50;;
17347;SDS011;8791;50.876;4.342;2023-04-08T02:48:22;24.60;;;11.57;;
17347;SDS011;8791;50.876;4.342;2023-04-08T02:50:48;29.80;;;11.73;;
17347;SDS011;8791;50.876;4.342;2023-04-08T02:53:15;24.90;;;12.07;;
17347;SDS011;8791;50.876;4.342;2023-04-08T02:55:42;25.07;;;11.37;;
17347;SDS011;8791;50.876;4.342;2023-04-08T02:58:09;30.60;;;11.47;;
17347;SDS011;8791;50.876;4.342;2023-04-08T03:00:36;26.37;;;10.93;;
17347;SDS011;8791;50.876;4.342;2023-04-08T03:03:03;19.40;;;11.73;;
17347;SDS011;8791;50.876;4.342;2023-04-08T03:05:32;26.13;;;11.37;;
17347;SDS011;8791;50.876;4.342;2023-04-08T03:07:59;22.80;;;12.33;;
17347;SDS011;8791;50.876;4.342;2023-04-08T03:10:25;30.50;;;12.77;;
17347;SDS011;8791;50.876;4.342;2023-04-08T03:12:52;26.40;;;11.50;;
17347;SDS011;8791;50.876;4.342;2023-04-08T03:15:19;40.10;;;14.00;;
17347;SDS011;8791;50.876;4.342;2023-04-08T03:17:46;24.00;;;13.07;;
17347;SDS011;8791;50.876;4.342;2023-04-08T03:20:13;26.13;;;13.23;;
17347;SDS011;8791;50.876;4.342;2023-04-08T03:22:41;33.37;;;13.67;;
17347;SDS011;8791;50.876;4.342;2023-04-08T03:25:08;31.87;;;14.43;;
17347;SDS011;8791;50.876;4.342;2023-04-08T03:27:35;33.87;;;15.13;;
17347;SDS011;8791;50.876;4.342;2023-04-08T03:30:02;27.13;;;14.00;;
17347;SDS011;8791;50.876;4.342;2023-04-08T03:32:29;30.83;;;14.50;;
17347;SDS011;8791;50.876;4.342;2023-04-08T03:34:56;35.00;;;15.47;;
17347;SDS011;8791;50.876;4.342;2023-04-08T03:37:23;29.80;;;13.63;;
17347;SDS011;8791;50.876;4.342;2023-04-08T03:39:51;33.83;;;15.90;;
17347;SDS011;8791;50.876;4.342;2023-04-08T03:42:18;43.30;;;16.27;;
17347;SDS011;8791;50.876;4.342;2023-04-08T03:44:45;33.93;;;15.57;;
17347;SDS011;8791;50.876;4.342;2023-04-08T03:47:12;37.23;;;17.17;;
17347;SDS011;8791;50.876;4.342;2023-04-08T03:49:38;39.97;;;16.20;;
17347;SDS011;8791;50.876;4.342;2023-04-08T03:52:05;39.83;;;16.13;;
17347;SDS011;8791;50.876;4.342;2023-04-08T03:54:32;39.50;;;15.63;;
17347;SDS011;8791;50.876;4.342;2023-04-08T03:57:00;37.83;;;16.33;;
17347;SDS011;8791;50.876;4.342;2023-04-08T03:59:27;41.30;;;16.53;;
17347;SDS011;8791;50.876;4.342;2023-04-08T04:01:54;38.00;;;16.57;;
17347;SDS011;8791;50.876;4.342;2023-04-08T04:04:21;43.47;;;19.03;;
17347;SDS011;8791;50.876;4.342;2023-04-08T04:06:47;40.60;;;18.50;;
17347;SDS011;8791;50.876;4.342;2023-04-08T04:09:14;46.43;;;18.83;;
17347;SDS011;8791;50.876;4.342;2023-04-08T04:11:41;39.87;;;17.37;;
17347;SDS011;8791;50.876;4.342;2023-04-08T04:14:09;35.67;;;16.97;;
17347;SDS011;8791;50.876;4.342;2023-04-08T04:16:36;47.30;;;17.97;;
17347;SDS011;8791;50.876;4.342;2023-04-08T04:19:03;43.93;;;18.37;;
17347;SDS011;8791;50.876;4.342;2023-04-08T04:21:30;34.70;;;18.13;;
17347;SDS011;8791;50.876;4.342;2023-04-08T04:23:57;36.60;;;19.03;;
17347;SDS011;8791;50.876;4.342;2023-04-08T04:26:23;42.97;;;19.23;;
17347;SDS011;8791;50.876;4.342;2023-04-08T04:28:51;38.47;;;18.90;;
17347;SDS011;8791;50.876;4.342;2023-04-08T04:31:19;45.47;;;19.87;;
17347;SDS011;8791;50.876;4.342;2023-04-08T04:33:47;40.27;;;19.03;;
17347;SDS011;8791;50.876;4.342;2023-04-08T04:36:14;42.07;;;19.80;;
17347;SDS011;8791;50.876;4.342;2023-04-08T04:38:42;42.13;;;19.00;;
17347;SDS011;8791;50.876;4.342;2023-04-08T04:43:37;50.37;;;18.13;;
17347;SDS011;8791;50.876;4.342;2023-04-08T04:46:04;44.60;;;18.63;;
17347;SDS011;8791;50.876;4.342;2023-04-08T04:48:34;36.80;;;18.43;;
17347;SDS011;8791;50.876;4.342;2023-04-08T04:51:01;51.07;;;18.33;;
17347;SDS011;8791;50.876;4.342;2023-04-08T04:53:28;43.37;;;18.27;;
17347;SDS011;8791;50.876;4.342;2023-04-08T04:55:55;35.20;;;17.37;;
17347;SDS011;8791;50.876;4.342;2023-04-08T04:58:22;49.90;;;18.93;;
17347;SDS011;8791;50.876;4.342;2023-04-08T05:00:49;51.90;;;19.43;;
17347;SDS011;8791;50.876;4.342;2023-04-08T05:03:16;44.20;;;18.87;;
17347;SDS011;8791;50.876;4.342;2023-04-08T05:05:47;37.43;;;17.50;;
17347;SDS011;8791;50.876;4.342;2023-04-08T05:08:16;37.23;;;18.53;;
17347;SDS011;8791;50.876;4.342;2023-04-08T05:10:43;36.63;;;18.33;;
17347;SDS011;8791;50.876;4.342;2023-04-08T05:13:10;40.67;;;17.67;;
17347;SDS011;8791;50.876;4.342;2023-04-08T05:15:37;47.30;;;19.13;;
17347;SDS011;8791;50.876;4.342;2023-04-08T05:18:04;45.73;;;17.60;;
17347;SDS011;8791;50.876;4.342;2023-04-08T05:20:30;43.57;;;18.90;;
17347;SDS011;8791;50.876;4.342;2023-04-08T05:22:59;35.13;;;18.30;;
17347;SDS011;8791;50.876;4.342;2023-04-08T05:25:25;41.40;;;17.87;;
17347;SDS011;8791;50.876;4.342;2023-04-08T05:27:52;43.60;;;18.43;;
17347;SDS011;8791;50.876;4.342;2023-04-08T05:30:20;42.93;;;18.40;;
17347;SDS011;8791;50.876;4.342;2023-04-08T05:32:47;46.33;;;18.30;;
17347;SDS011;8791;50.876;4.342;2023-04-08T05:35:14;45.23;;;18.97;;
17347;SDS011;8791;50.876;4.342;2023-04-08T05:37:40;41.10;;;18.60;;
17347;SDS011;8791;50.876;4.342;2023-04-08T05:40:09;51.50;;;18.70;;
17347;SDS011;8791;50.876;4.342;2023-04-08T05:42:36;50.70;;;19.97;;
17347;SDS011;8791;50.876;4.342;2023-04-08T05:45:03;45.87;;;19.03;;
17347;SDS011;8791;50.876;4.342;2023-04-08T05:47:31;53.57;;;20.60;;
17347;SDS011;8791;50.876;4.342;2023-04-08T05:49:58;44.70;;;17.93;;
17347;SDS011;8791;50.876;4.342;2023-04-08T05:52:25;46.37;;;19.13;;
17347;SDS011;8791;50.876;4.342;2023-04-08T05:54:52;45.07;;;19.47;;
17347;SDS011;8791;50.876;4.342;2023-04-08T05:57:20;47.93;;;19.27;;
17347;SDS011;8791;50.876;4.342;2023-04-08T05:59:47;52.70;;;19.63;;
17347;SDS011;8791;50.876;4.342;2023-04-08T06:02:14;45.27;;;19.07;;
17347;SDS011;8791;50.876;4.342;2023-04-08T06:04:41;42.47;;;18.87;;
17347;SDS011;8791;50.876;4.342;2023-04-08T06:07:08;53.40;;;20.27;;
17347;SDS011;8791;50.876;4.342;2023-04-08T06:09:35;44.97;;;19.33;;
17347;SDS011;8791;50.876;4.342;2023-04-08T06:12:02;45.63;;;18.20;;
17347;SDS011;8791;50.876;4.342;2023-04-08T06:14:31;34.83;;;18.43;;
17347;SDS011;8791;50.876;4.342;2023-04-08T06:16:58;47.50;;;19.13;;
17347;SDS011;8791;50.876;4.342;2023-04-08T06:19:24;43.53;;;19.47;;
17347;SDS011;8791;50.876;4.342;2023-04-08T06:21:51;46.37;;;20.73;;
17347;SDS011;8791;50.876;4.342;2023-04-08T06:24:22;42.03;;;19.23;;
17347;SDS011;8791;50.876;4.342;2023-04-08T06:26:50;43.67;;;18.67;;
17347;SDS011;8791;50.876;4.342;2023-04-08T06:29:17;40.50;;;17.87;;
17347;SDS011;8791;50.876;4.342;2023-04-08T06:31:46;37.73;;;18.83;;
17347;SDS011;8791;50.876;4.342;2023-04-08T06:34:12;43.70;;;19.50;;
17347;SDS011;8791;50.876;4.342;2023-04-08T06:36:39;34.60;;;19.03;;
17347;SDS011;8791;50.876;4.342;2023-04-08T06:39:06;43.20;;;19.97;;
17347;SDS011;8791;50.876;4.342;2023-04-08T06:41:33;33.40;;;17.27;;
17347;SDS011;8791;50.876;4.342;2023-04-08T06:44:00;40.30;;;18.13;;
17347;SDS011;8791;50.876;4.342;2023-04-08T06:46:27;38.33;;;18.47;;
17347;SDS011;8791;50.876;4.342;2023-04-08T06:48:55;42.93;;;18.90;;
17347;SDS011;8791;50.876;4.342;2023-04-08T06:51:22;32.43;;;17.30;;
17347;SDS011;8791;50.876;4.342;2023-04-08T06:53:51;35.10;;;17.43;;
17347;SDS011;8791;50.876;4.342;2023-04-08T06:56:20;36.40;;;18.00;;
17347;SDS011;8791;50.876;4.342;2023-04-08T06:58:47;38.83;;;18.23;;
17347;SDS011;8791;50.876;4.342;2023-04-08T07:01:14;27.57;;;16.30;;
17347;SDS011;8791;50.876;4.342;2023-04-08T07:03:41;44.87;;;18.57;;
17347;SDS011;8791;50.876;4.342;2023-04-08T07:06:10;45.73;;;16.87;;
17347;SDS011;8791;50.876;4.342;2023-04-08T07:08:36;31.90;;;16.87;;
17347;SDS011;8791;50.876;4.342;2023-04-08T07:11:03;37.80;;;16.87;;
17347;SDS011;8791;50.876;4.342;2023-04-08T07:13:30;36.67;;;17.60;;
17347;SDS011;8791;50.876;4.342;2023-04-08T07:15:57;36.03;;;17.13;;
17347;SDS011;8791;50.876;4.342;2023-04-08T07:18:25;29.70;;;16.97;;
17347;SDS011;8791;50.876;4.342;2023-04-08T07:20:52;36.87;;;16.87;;
17347;SDS011;8791;50.876;4.342;2023-04-08T07:23:21;32.00;;;14.57;;
17347;SDS011;8791;50.876;4.342;2023-04-08T07:25:48;29.77;;;16.17;;
17347;SDS011;8791;50.876;4.342;2023-04-08T07:28:15;33.07;;;16.13;;
17347;SDS011;8791;50.876;4.342;2023-04-08T07:30:42;32.53;;;14.97;;
17347;SDS011;8791;50.876;4.342;2023-04-08T07:33:13;24.53;;;15.67;;
17347;SDS011;8791;50.876;4.342;2023-04-08T07:35:41;28.50;;;14.33;;
17347;SDS011;8791;50.876;4.342;2023-04-08T07:38:08;28.37;;;13.77;;
17347;SDS011;8791;50.876;4.342;2023-04-08T07:40:37;29.27;;;13.87;;
17347;SDS011;8791;50.876;4.342;2023-04-08T07:43:04;28.93;;;13.53;;
17347;SDS011;8791;50.876;4.342;2023-04-08T07:45:31;27.00;;;13.97;;
17347;SDS011;8791;50.876;4.342;2023-04-08T07:47:58;29.47;;;15.00;;
17347;SDS011;8791;50.876;4.342;2023-04-08T07:50:25;29.43;;;13.27;;
17347;SDS011;8791;50.876;4.342;2023-04-08T07:52:52;22.37;;;13.33;;
17347;SDS011;8791;50.876;4.342;2023-04-08T07:55:19;23.83;;;13.87;;
17347;SDS011;8791;50.876;4.342;2023-04-08T07:57:48;23.10;;;12.80;;
17347;SDS011;8791;50.876;4.342;2023-04-08T08:00:15;25.63;;;14.13;;
17347;SDS011;8791;50.876;4.342;2023-04-08T08:02:45;26.23;;;14.27;;
17347;SDS011;8791;50.876;4.342;2023-04-08T08:05:12;25.93;;;13.73;;
17347;SDS011;8791;50.876;4.342;2023-04-08T08:07:39;23.07;;;12.90;;
17347;SDS011;8791;50.876;4.342;2023-04-08T08:10:07;20.23;;;12.23;;
17347;SDS011;8791;50.876;4.342;2023-04-08T08:12:34;20.03;;;12.93;;
17347;SDS011;8791;50.876;4.342;2023-04-08T08:15:02;22.87;;;13.60;;
17347;SDS011;8791;50.876;4.342;2023-04-08T08:17:30;24.83;;;13.00;;
17347;SDS011;8791;50.876;4.342;2023-04-08T08:19:57;32.63;;;14.90;;
17347;SDS011;8791;50.876;4.342;2023-04-08T08:22:24;22.57;;;14.07;;
17347;SDS011;8791;50.876;4.342;2023-04-08T08:24:54;23.40;;;13.97;;
17347;SDS011;8791;50.876;4.342;2023-04-08T08:27:21;24.67;;;14.40;;
17347;SDS011;8791;50.876;4.342;2023-04-08T08:29:48;30.97;;;15.33;;
17347;SDS011;8791;50.876;4.342;2023-04-08T08:32:16;24.00;;;14.27;;
17347;SDS011;8791;50.876;4.342;2023-04-08T08:34:43;22.90;;;15.20;;
17347;SDS011;8791;50.876;4.342;2023-04-08T08:37:10;37.30;;;15.90;;
17347;SDS011;8791;50.876;4.342;2023-04-08T08:39:37;28.07;;;15.60;;
17347;SDS011;8791;50.876;4.342;2023-04-08T08:42:05;28.10;;;15.47;;
17347;SDS011;8791;50.876;4.342;2023-04-08T08:44:32;30.60;;;16.70;;
17347;SDS011;8791;50.876;4.342;2023-04-08T08:47:00;32.33;;;16.30;;
17347;SDS011;8791;50.876;4.342;2023-04-08T08:49:28;31.43;;;15.33;;
17347;SDS011;8791;50.876;4.342;2023-04-08T08:51:55;25.93;;;14.17;;
17347;SDS011;8791;50.876;4.342;2023-04-08T08:54:23;29.00;;;15.07;;
17347;SDS011;8791;50.876;4.342;2023-04-08T08:56:50;25.53;;;13.97;;
17347;SDS011;8791;50.876;4.342;2023-04-08T08:59:17;25.20;;;13.30;;
17347;SDS011;8791;50.876;4.342;2023-04-08T09:01:44;24.53;;;14.30;;
17347;SDS011;8791;50.876;4.342;2023-04-08T09:04:12;26.73;;;14.70;;
17347;SDS011;8791;50.876;4.342;2023-04-08T09:06:42;25.60;;;14.47;;
17347;SDS011;8791;50.876;4.342;2023-04-08T09:09:10;27.90;;;15.53;;
17347;SDS011;8791;50.876;4.342;2023-04-08T09:11:38;32.27;;;15.03;;
17347;SDS011;8791;50.876;4.342;2023-04-08T09:14:18;36.00;;;15.70;;
17347;SDS011;8791;50.876;4.342;2023-04-08T09:16:46;25.17;;;15.10;;
17347;SDS011;8791;50.876;4.342;2023-04-08T09:19:13;28.17;;;15.90;;
17347;SDS011;8791;50.876;4.342;2023-04-08T09:21:45;24.20;;;16.60;;
17347;SDS011;8791;50.876;4.342;2023-04-08T09:24:29;30.10;;;16.63;;
17347;SDS011;8791;50.876;4.342;2023-04-08T09:26:56;25.57;;;16.63;;
17347;SDS011;8791;50.876;4.342;2023-04-08T09:29:23;32.60;;;17.40;;
17347;SDS011;8791;50.876;4.342;2023-04-08T09:31:55;34.90;;;17.20;;
17347;SDS011;8791;50.876;4.342;2023-04-08T09:34:23;29.87;;;16.20;;
17347;SDS011;8791;50.876;4.342;2023-04-08T09:36:52;23.83;;;15.80;;
17347;SDS011;8791;50.876;4.342;2023-04-08T09:39:20;29.73;;;15.30;;
17347;SDS011;8791;50.876;4.342;2023-04-08T09:41:48;26.97;;;16.20;;
17347;SDS011;8791;50.876;4.342;2023-04-08T09:44:17;29.50;;;16.63;;
17347;SDS011;8791;50.876;4.342;2023-04-08T09:46:52;30.70;;;17.97;;
17347;SDS011;8791;50.876;4.342;2023-04-08T09:49:25;27.00;;;17.27;;
17347;SDS011;8791;50.876;4.342;2023-04-08T09:51:58;30.70;;;18.27;;
17347;SDS011;8791;50.876;4.342;2023-04-08T09:54:35;31.27;;;19.23;;
17347;SDS011;8791;50.876;4.342;2023-04-08T09:57:09;29.77;;;17.27;;
17347;SDS011;8791;50.876;4.342;2023-04-08T09:59:42;22.57;;;14.50;;
17347;SDS011;8791;50.876;4.342;2023-04-08T10:02:18;27.60;;;17.30;;
17347;SDS011;8791;50.876;4.342;2023-04-08T10:04:54;26.60;;;16.50;;
17347;SDS011;8791;50.876;4.342;2023-04-08T10:07:25;33.90;;;17.70;;
17347;SDS011;8791;50.876;4.342;2023-04-08T10:09:52;27.57;;;16.20;;
17347;SDS011;8791;50.876;4.342;2023-04-08T10:12:19;33.43;;;17.17;;
17347;SDS011;8791;50.876;4.342;2023-04-08T10:17:46;27.07;;;16.37;;
17347;SDS011;8791;50.876;4.342;2023-04-08T10:23:09;28.43;;;15.40;;
17347;SDS011;8791;50.876;4.342;2023-04-08T10:25:38;25.77;;;16.20;;
17347;SDS011;8791;50.876;4.342;2023-04-08T10:28:24;28.93;;;14.60;;
17347;SDS011;8791;50.876;4.342;2023-04-08T10:30:52;21.80;;;14.27;;
17347;SDS011;8791;50.876;4.342;2023-04-08T10:33:20;25.07;;;14.63;;
17347;SDS011;8791;50.876;4.342;2023-04-08T10:35:52;26.27;;;14.10;;
17347;SDS011;8791;50.876;4.342;2023-04-08T10:38:22;18.83;;;13.30;;
17347;SDS011;8791;50.876;4.342;2023-04-08T10:40:48;19.20;;;13.00;;
17347;SDS011;8791;50.876;4.342;2023-04-08T10:43:22;19.43;;;13.60;;
17347;SDS011;8791;50.876;4.342;2023-04-08T10:45:59;25.00;;;14.83;;
17347;SDS011;8791;50.876;4.342;2023-04-08T10:48:27;23.37;;;13.40;;
17347;SDS011;8791;50.876;4.342;2023-04-08T10:50:54;18.53;;;11.20;;
17347;SDS011;8791;50.876;4.342;2023-04-08T10:53:24;15.37;;;12.07;;
17347;SDS011;8791;50.876;4.342;2023-04-08T10:55:59;21.90;;;12.13;;
17347;SDS011;8791;50.876;4.342;2023-04-08T10:58:46;23.40;;;12.37;;
17347;SDS011;8791;50.876;4.342;2023-04-08T11:01:14;21.17;;;13.93;;
17347;SDS011;8791;50.876;4.342;2023-04-08T11:03:41;21.80;;;15.33;;
17347;SDS011;8791;50.876;4.342;2023-04-08T11:06:09;26.33;;;14.27;;
17347;SDS011;8791;50.876;4.342;2023-04-08T11:08:37;23.13;;;13.70;;
17347;SDS011;8791;50.876;4.342;2023-04-08T11:11:04;23.37;;;14.40;;
17347;SDS011;8791;50.876;4.342;2023-04-08T11:13:33;21.70;;;14.40;;
17347;SDS011;8791;50.876;4.342;2023-04-08T11:16:01;29.67;;;15.27;;
17347;SDS011;8791;50.876;4.342;2023-04-08T11:18:29;21.70;;;13.43;;
17347;SDS011;8791;50.876;4.342;2023-04-08T11:23:49;30.63;;;16.10;;
17347;SDS011;8791;50.876;4.342;2023-04-08T11:26:17;27.73;;;15.23;;
17347;SDS011;8791;50.876;4.342;2023-04-08T11:28:45;25.53;;;15.10;;
17347;SDS011;8791;50.876;4.342;2023-04-08T11:31:13;23.93;;;15.93;;
17347;SDS011;8791;50.876;4.342;2023-04-08T11:33:45;22.83;;;14.70;;
17347;SDS011;8791;50.876;4.342;2023-04-08T11:36:13;27.50;;;14.43;;
17347;SDS011;8791;50.876;4.342;2023-04-08T11:38:43;29.57;;;14.97;;
17347;SDS011;8791;50.876;4.342;2023-04-08T11:41:13;19.60;;;14.23;;
17347;SDS011;8791;50.876;4.342;2023-04-08T11:43:50;23.77;;;16.27;;
17347;SDS011;8791;50.876;4.342;2023-04-08T11:46:20;26.33;;;16.77;;
17347;SDS011;8791;50.876;4.342;2023-04-08T11:49:00;28.40;;;16.97;;
17347;SDS011;8791;50.876;4.342;2023-04-08T11:51:30;23.97;;;16.27;;
17347;SDS011;8791;50.876;4.342;2023-04-08T11:54:00;26.33;;;16.10;;
17347;SDS011;8791;50.876;4.342;2023-04-08T11:56:42;23.07;;;15.83;;
17347;SDS011;8791;50.876;4.342;2023-04-08T11:59:12;31.07;;;19.17;;
17347;SDS011;8791;50.876;4.342;2023-04-08T12:01:39;27.20;;;17.90;;
17347;SDS011;8791;50.876;4.342;2023-04-08T12:07:10;23.47;;;14.53;;
17347;SDS011;8791;50.876;4.342;2023-04-08T12:09:38;21.97;;;14.37;;
17347;SDS011;8791;50.876;4.342;2023-04-08T12:12:06;21.90;;;14.43;;
17347;SDS011;8791;50.876;4.342;2023-04-08T12:14:33;21.93;;;15.33;;
17347;SDS011;8791;50.876;4.342;2023-04-08T12:17:00;14.90;;;13.03;;
17347;SDS011;8791;50.876;4.342;2023-04-08T12:19:27;21.00;;;13.47;;
17347;SDS011;8791;50.876;4.342;2023-04-08T12:21:56;19.40;;;12.43;;
17347;SDS011;8791;50.876;4.342;2023-04-08T12:24:23;19.37;;;12.73;;
17347;SDS011;8791;50.876;4.342;2023-04-08T12:26:50;17.70;;;12.00;;
17347;SDS011;8791;50.876;4.342;2023-04-08T12:29:19;12.37;;;11.07;;
17347;SDS011;8791;50.876;4.342;2023-04-08T12:31:45;20.43;;;13.30;;
17347;SDS011;8791;50.876;4.342;2023-04-08T12:34:13;22.33;;;12.90;;
17347;SDS011;8791;50.876;4.342;2023-04-08T12:36:40;14.87;;;11.40;;
17347;SDS011;8791;50.876;4.342;2023-04-08T12:39:08;19.60;;;12.57;;
17347;SDS011;8791;50.876;4.342;2023-04-08T12:41:35;17.07;;;11.77;;
17347;SDS011;8791;50.876;4.342;2023-04-08T12:44:02;14.27;;;10.73;;
17347;SDS011;8791;50.876;4.342;2023-04-08T12:46:31;15.00;;;12.33;;
17347;SDS011;8791;50.876;4.342;2023-04-08T12:48:58;17.13;;;11.90;;
17347;SDS011;8791;50.876;4.342;2023-04-08T12:51:25;15.10;;;11.63;;
17347;SDS011;8791;50.876;4.342;2023-04-08T12:53:53;13.87;;;10.47;;
17347;SDS011;8791;50.876;4.342;2023-04-08T12:56:20;19.57;;;10.70;;
17347;SDS011;8791;50.876;4.342;2023-04-08T12:58:47;14.13;;;10.13;;
17347;SDS011;8791;50.876;4.342;2023-04-08T13:01:14;16.03;;;10.83;;
17347;SDS011;8791;50.876;4.342;2023-04-08T13:03:42;14.97;;;10.13;;
17347;SDS011;8791;50.876;4.342;2023-04-08T13:06:12;12.80;;;10.00;;
17347;SDS011;8791;50.876;4.342;2023-04-08T13:08:53;16.90;;;11.00;;
17347;SDS011;8791;50.876;4.342;2023-04-08T13:11:20;15.70;;;10.83;;
17347;SDS011;8791;50.876;4.342;2023-04-08T13:13:47;13.27;;;9.98;;
17347;SDS011;8791;50.876;4.342;2023-04-08T13:16:14;15.90;;;10.53;;
17347;SDS011;8791;50.876;4.342;2023-04-08T13:18:43;12.95;;;10.55;;
17347;SDS011;8791;50.876;4.342;2023-04-08T13:21:09;13.18;;;9.93;;
17347;SDS011;8791;50.876;4.342;2023-04-08T13:23:36;12.32;;;10.20;;
17347;SDS011;8791;50.876;4.342;2023-04-08T13:26:03;14.10;;;10.88;;
17347;SDS011;8791;50.876;4.342;2023-04-08T13:28:30;14.10;;;11.10;;
17347;SDS011;8791;50.876;4.342;2023-04-08T13:30:57;15.18;;;11.15;;
17347;SDS011;8791;50.876;4.342;2023-04-08T13:33:24;12.63;;;10.02;;
17347;SDS011;8791;50.876;4.342;2023-04-08T13:35:52;15.23;;;10.98;;
17347;SDS011;8791;50.876;4.342;2023-04-08T13:38:19;20.50;;;11.55;;
17347;SDS011;8791;50.876;4.342;2023-04-08T13:40:46;21.37;;;12.70;;
17347;SDS011;8791;50.876;4.342;2023-04-08T13:43:14;16.03;;;11.87;;
17347;SDS011;8791;50.876;4.342;2023-04-08T13:45:41;16.17;;;11.17;;
17347;SDS011;8791;50.876;4.342;2023-04-08T13:48:08;17.60;;;12.90;;
17347;SDS011;8791;50.876;4.342;2023-04-08T13:50:35;15.83;;;11.90;;
17347;SDS011;8791;50.876;4.342;2023-04-08T13:53:04;17.07;;;11.80;;
17347;SDS011;8791;50.876;4.342;2023-04-08T13:55:31;17.10;;;12.50;;
17347;SDS011;8791;50.876;4.342;2023-04-08T13:57:57;18.65;;;12.02;;
17347;SDS011;8791;50.876;4.342;2023-04-08T14:00:24;22.02;;;13.20;;
17347;SDS011;8791;50.876;4.342;2023-04-08T14:02:52;18.23;;;13.30;;
17347;SDS011;8791;50.876;4.342;2023-04-08T14:05:19;19.17;;;12.50;;
17347;SDS011;8791;50.876;4.342;2023-04-08T14:07:45;23.53;;;13.17;;
17347;SDS011;8791;50.876;4.342;2023-04-08T14:10:14;19.13;;;12.87;;
17347;SDS011;8791;50.876;4.342;2023-04-08T14:12:41;20.77;;;13.20;;
17347;SDS011;8791;50.876;4.342;2023-04-08T14:15:08;26.30;;;14.70;;
17347;SDS011;8791;50.876;4.342;2023-04-08T14:17:35;23.40;;;14.40;;
17347;SDS011;8791;50.876;4.342;2023-04-08T14:20:02;23.37;;;14.73;;
17347;SDS011;8791;50.876;4.342;2023-04-08T14:22:30;19.20;;;14.30;;
17347;SDS011;8791;50.876;4.342;2023-04-08T14:24:57;23.90;;;14.70;;
17347;SDS011;8791;50.876;4.342;2023-04-08T14:27:25;20.03;;;14.00;;
17347;SDS011;8791;50.876;4.342;2023-04-08T14:29:52;23.98;;;15.23;;
17347;SDS011;8791;50.876;4.342;2023-04-08T14:32:19;25.67;;;15.57;;
17347;SDS011;8791;50.876;4.342;2023-04-08T14:34:46;20.00;;;14.90;;
17347;SDS011;8791;50.876;4.342;2023-04-08T14:37:13;24.73;;;15.20;;
17347;SDS011;8791;50.876;4.342;2023-04-08T14:39:41;24.97;;;15.60;;
17347;SDS011;8791;50.876;4.342;2023-04-08T14:42:08;20.60;;;14.83;;
17347;SDS011;8791;50.876;4.342;2023-04-08T14:44:36;27.60;;;15.20;;
17347;SDS011;8791;50.876;4.342;2023-04-08T14:47:03;23.70;;;16.13;;
17347;SDS011;8791;50.876;4.342;2023-04-08T14:49:30;24.13;;;15.93;;
17347;SDS011;8791;50.876;4.342;2023-04-08T14:51:57;31.70;;;17.90;;
17347;SDS011;8791;50.876;4.342;2023-04-08T14:54:24;32.00;;;16.13;;
17347;SDS011;8791;50.876;4.342;2023-04-08T14:56:50;23.73;;;15.37;;